Terminal Aerodrome Forecast
Issued by NWS Sioux Falls, SD

Home | Current Version | Previous Version | Graphics & Text | Print | Product List | Glossary Off
Versions: 1 2 3 4 5 6 7 8 9 10 11 12 13 14 15 16

992
FTUS43 KFSD 222320
TAFHON
TAF
KHON 222320Z 2300/2324 35015G22KT P6SM OVC008
     FM230500 33008KT P6SM OVC008
     FM231300 30006KT P6SM BKN008
     FM231600 30005KT P6SM BKN015
     FM231800 30007KT P6SM BKN020
     FM232000 30008KT P6SM SCT035=

USA.gov is the U.S. government's official web portal to all federal, state and local government web resources and services.